Time;durP1;ratioP1;P1;durP2;ratioP2;P2;SDS_P1;SDS_P2;PMS_P1;PMS_P2;Temp;Humidity;BMP_temperature;BMP_pressure;BME280_temperature;BME280_humidity;BME280_pressure;Samples;Min_cycle;Max_cycle;Signal;HPM_P1;HPM_P2
2023/01/21 00:01:54;;;;;;;9.70;8.40;;;;;;;-0.88;100.00;97421.48;108834;1297;22174;-82
2023/01/21 00:04:23;;;;;;;8.50;7.70;;;;;;;-0.88;100.00;97427.48;108850;1297;22880;-84
2023/01/21 00:06:51;;;;;;;8.70;7.70;;;;;;;-0.88;100.00;97428.97;108856;1297;22278;-85
2023/01/21 00:09:18;;;;;;;9.50;7.80;;;;;;;-0.86;100.00;97434.50;108856;1297;22376;-85
2023/01/21 00:11:46;;;;;;;9.90;9.00;;;;;;;-0.84;100.00;97434.91;108826;1297;22290;-85
2023/01/21 00:14:14;;;;;;;10.00;9.10;;;;;;;-0.78;100.00;97439.14;108840;1297;22955;-86
2023/01/21 00:16:42;;;;;;;9.60;8.60;;;;;;;-0.74;100.00;97444.98;108671;1297;22183;-87
2023/01/21 00:19:10;;;;;;;9.60;8.60;;;;;;;-0.69;100.00;97447.73;108858;1297;23131;-87
2023/01/21 00:21:38;;;;;;;10.80;9.80;;;;;;;-0.63;100.00;97451.90;108819;1297;22227;-86
2023/01/21 00:24:06;;;;;;;12.50;11.40;;;;;;;-0.57;100.00;97458.73;108821;1297;22200;-86
2023/01/21 00:26:34;;;;;;;8.80;7.90;;;;;;;-0.50;100.00;97456.62;108849;1297;22291;-85
2023/01/21 00:29:02;;;;;;;9.10;8.30;;;;;;;-0.46;100.00;97463.22;108858;1297;22306;-85
2023/01/21 00:31:31;;;;;;;9.50;8.60;;;;;;;-0.43;100.00;97461.36;108849;1297;22243;-84
2023/01/21 00:33:59;;;;;;;9.00;8.10;;;;;;;-0.43;100.00;97463.48;108686;1297;22359;-86
2023/01/21 00:36:28;;;;;;;10.20;9.20;;;;;;;-0.43;100.00;97462.10;108843;1297;22203;-87
2023/01/21 00:38:56;;;;;;;10.40;9.40;;;;;;;-0.41;100.00;97466.33;108874;1297;22127;-90
2023/01/21 00:41:25;;;;;;;8.70;7.80;;;;;;;-0.34;100.00;97472.42;108890;1297;22265;-88
2023/01/21 00:43:53;;;;;;;9.20;8.30;;;;;;;-0.27;100.00;97470.36;108859;1297;22280;-86
2023/01/21 00:46:21;;;;;;;9.30;8.50;;;;;;;-0.23;100.00;97467.95;108862;1297;22211;-86
2023/01/21 00:48:49;;;;;;;9.40;8.50;;;;;;;-0.23;100.00;97472.35;108842;1297;22901;-86
2023/01/21 00:51:17;;;;;;;11.40;10.30;;;;;;;-0.27;100.00;97472.92;108853;1297;22645;-85
2023/01/21 00:53:45;;;;;;;9.90;9.00;;;;;;;-0.29;100.00;97471.77;108833;1297;22183;-85
2023/01/21 00:56:13;;;;;;;9.60;8.70;;;;;;;-0.30;100.00;97473.65;108845;1297;22883;-85
2023/01/21 00:58:42;;;;;;;9.30;8.40;;;;;;;-0.29;100.00;97474.27;108899;1297;22272;-94
2023/01/21 01:01:13;;;;;;;8.90;8.00;;;;;;;-0.24;100.00;97477.73;108758;1288;22186;-91
2023/01/21 01:03:41;;;;;;;10.00;9.10;;;;;;;-0.22;100.00;97478.40;108710;1282;22215;-90
2023/01/21 01:06:21;;;;;;;9.30;8.50;;;;;;;-0.25;100.00;97475.08;108920;1297;22257;-90
2023/01/21 01:08:49;;;;;;;9.50;8.60;;;;;;;-0.24;100.00;97477.30;108712;1288;22823;-90
2023/01/21 01:11:20;;;;;;;8.60;7.80;;;;;;;-0.28;100.00;97480.36;108874;1297;23050;-90
2023/01/21 01:13:48;;;;;;;8.90;8.10;;;;;;;-0.26;100.00;97483.52;108690;1297;22865;-91
2023/01/21 01:16:16;;;;;;;8.60;7.70;;;;;;;-0.21;100.00;97481.63;108694;1297;22158;-90
2023/01/21 01:18:44;;;;;;;7.90;7.10;;;;;;;-0.17;100.00;97485.41;108916;1297;22216;-91
2023/01/21 01:21:15;;;;;;;8.60;7.80;;;;;;;-0.20;100.00;97487.07;108645;1297;23024;-89
2023/01/21 01:23:44;;;;;;;9.20;8.30;;;;;;;-0.26;100.00;97490.25;108687;1297;22958;-86
2023/01/21 01:26:15;;;;;;;11.50;10.40;;;;;;;-0.28;100.00;97492.42;108691;1297;22279;-87
2023/01/21 01:28:43;;;;;;;14.50;13.20;;;;;;;-0.30;100.00;97489.27;108712;1297;23023;-86
2023/01/21 01:31:14;;;;;;;12.90;11.70;;;;;;;-0.29;100.00;97485.52;108703;1297;22259;-86
2023/01/21 01:33:42;;;;;;;9.50;8.60;;;;;;;-0.33;100.00;97484.26;108682;1297;22139;-86
2023/01/21 01:36:16;;;;;;;10.90;10.00;;;;;;;-0.36;100.00;97487.31;108681;1297;22930;-88
2023/01/21 01:38:45;;;;;;;8.70;7.90;;;;;;;-0.44;100.00;97489.40;108572;1297;22243;-87
2023/01/21 01:41:17;;;;;;;9.50;8.60;;;;;;;-0.48;100.00;97489.33;108692;1297;22995;-87
2023/01/21 01:43:51;;;;;;;7.60;6.90;;;;;;;-0.45;100.00;97486.11;108700;1297;23504;-87
2023/01/21 01:46:21;;;;;;;9.00;8.10;;;;;;;-0.47;100.00;97488.73;108900;1297;23148;-87
2023/01/21 01:48:57;;;;;;;11.80;7.20;;;;;;;-0.51;100.00;97488.48;108760;1297;22147;-87
2023/01/21 01:51:34;;;;;;;10.50;7.50;;;;;;;-0.53;100.00;97481.83;108877;1297;22149;-86
2023/01/21 01:54:03;;;;;;;9.70;8.60;;;;;;;-0.57;100.00;97481.14;108927;1297;22193;-86
2023/01/21 01:56:34;;;;;;;9.80;8.40;;;;;;;-0.54;100.00;97475.09;109032;1289;22192;-86
2023/01/21 01:59:02;;;;;;;10.70;9.40;;;;;;;-0.51;100.00;97471.22;108861;1297;22165;-86
2023/01/21 02:01:30;;;;;;;11.70;10.40;;;;;;;-0.52;100.00;97469.78;108868;1297;22205;-85
2023/01/21 02:04:01;;;;;;;11.50;9.90;;;;;;;-0.56;100.00;97474.06;108868;1297;22130;-86
2023/01/21 02:06:29;;;;;;;10.70;9.60;;;;;;;-0.60;100.00;97468.02;108694;1297;22223;-86
2023/01/21 02:08:57;;;;;;;9.60;8.60;;;;;;;-0.60;100.00;97465.77;108872;1297;22858;-85
2023/01/21 02:11:25;;;;;;;9.90;8.90;;;;;;;-0.55;100.00;97464.27;108861;1297;22208;-85
2023/01/21 02:13:56;;;;;;;9.90;8.90;;;;;;;-0.57;100.00;97461.02;108699;1297;23020;-85
2023/01/21 02:16:30;;;;;;;10.80;9.10;;;;;;;-0.60;100.00;97460.06;108584;1297;22713;-85
2023/01/21 02:19:16;;;;;;;9.70;8.80;;;;;;;-0.62;100.00;97459.33;108859;1297;22262;-86
2023/01/21 02:22:11;;;;;;;9.60;8.70;;;;;;;-0.64;100.00;97457.40;108850;1297;23367;-86
2023/01/21 02:24:53;;;;;;;11.70;10.50;;;;;;;-0.67;100.00;97452.21;108890;1297;22204;-86
2023/01/21 02:27:30;;;;;;;11.20;10.10;;;;;;;-0.66;100.00;97452.23;108886;1297;22264;-87
2023/01/21 02:30:35;;;;;;;10.80;9.80;;;;;;;-0.69;100.00;97453.02;108825;1297;22220;-88
2023/01/21 02:33:21;;;;;;;11.50;10.50;;;;;;;-0.76;100.00;97451.94;108878;1297;22058;-87
2023/01/21 02:36:12;;;;;;;9.30;8.40;;;;;;;-0.78;100.00;97453.29;108852;1297;22421;-87
2023/01/21 02:38:49;;;;;;;8.70;7.80;;;;;;;-0.75;100.00;97452.11;108856;1297;22198;-88
2023/01/21 02:41:55;;;;;;;8.70;7.90;;;;;;;-0.73;100.00;97455.33;108873;1297;22592;-88
2023/01/21 02:44:36;;;;;;;9.60;8.70;;;;;;;-0.73;100.00;97457.05;108717;1291;22257;-88
2023/01/21 02:47:37;;;;;;;9.30;8.40;;;;;;;-0.76;100.00;97457.93;108715;1297;22246;-87
2023/01/21 02:50:11;;;;;;;8.80;8.00;;;;;;;-0.76;100.00;97458.03;108687;1297;22196;-87
2023/01/21 02:52:39;;;;;;;8.50;7.70;;;;;;;-0.75;100.00;97458.05;108850;1297;22287;-87
2023/01/21 02:55:15;;;;;;;8.60;7.80;;;;;;;-0.75;100.00;97457.93;108878;1297;22143;-87
2023/01/21 02:57:48;;;;;;;9.30;8.50;;;;;;;-0.79;100.00;97455.69;108854;1297;23035;-87
2023/01/21 03:00:25;;;;;;;9.10;8.30;;;;;;;-0.75;100.00;97453.64;108888;1297;22150;-87
2023/01/21 03:03:20;;;;;;;8.90;8.10;;;;;;;-0.77;100.00;97451.08;108886;1297;22209;-87
2023/01/21 03:06:06;;;;;;;;;;;;;;;-0.82;100.00;97449.89;108738;1297;22414;-87
2023/01/21 03:08:50;;;;;;;9.10;8.20;;;;;;;-0.84;100.00;97446.17;108892;1297;22261;-87
2023/01/21 03:11:20;;;;;;;9.10;7.50;;;;;;;-0.85;100.00;97442.86;108823;1297;22170;-85
2023/01/21 03:17:02;;;;;;;8.60;7.80;;;;;;;-0.93;100.00;97444.86;108877;1297;22304;-87
2023/01/21 03:19:43;;;;;;;9.50;8.10;;;;;;;-0.93;100.00;97438.19;108695;1297;22267;-86
2023/01/21 03:22:16;;;;;;;8.70;6.90;;;;;;;-0.96;100.00;97438.98;108872;1297;22272;-87
2023/01/21 03:24:49;;;;;;;7.80;7.00;;;;;;;-0.97;100.00;97434.68;108845;1297;22871;-86
2023/01/21 03:27:23;;;;;;;8.50;7.70;;;;;;;-0.99;100.00;97435.49;108675;1297;22202;-86
2023/01/21 03:29:56;;;;;;;11.00;10.00;;;;;;;-0.99;100.00;97437.30;108573;1297;22169;-86
2023/01/21 03:32:28;;;;;;;12.80;11.70;;;;;;;-0.99;100.00;97436.65;108879;1297;22277;-86
2023/01/21 03:34:58;;;;;;;12.10;11.10;;;;;;;-0.94;100.00;97434.30;108574;1297;22885;-86
2023/01/21 03:37:57;;;;;;;8.90;8.10;;;;;;;-0.92;100.00;97438.90;108864;1279;22276;-86
2023/01/21 03:40:39;;;;;;;9.70;8.80;;;;;;;-0.96;100.00;97441.95;108822;1297;22192;-85
2023/01/21 03:43:08;;;;;;;9.10;8.30;;;;;;;-0.94;100.00;97447.77;108585;1297;22176;-86
2023/01/21 03:45:45;;;;;;;7.50;6.80;;;;;;;-0.91;100.00;97449.38;108911;1297;22241;-86
2023/01/21 03:48:30;;;;;;;8.60;7.70;;;;;;;-0.89;100.00;97448.93;108650;1297;22258;-87
2023/01/21 03:51:06;;;;;;;7.30;6.60;;;;;;;-0.93;100.00;97450.95;108966;1297;22210;-87
2023/01/21 03:53:35;;;;;;;7.30;6.60;;;;;;;-0.90;100.00;97454.52;109223;1297;22239;-86
2023/01/21 03:56:03;;;;;;;6.90;6.30;;;;;;;-0.89;100.00;97456.88;109246;1297;22141;-86
2023/01/21 03:58:31;;;;;;;7.20;6.50;;;;;;;-0.93;100.00;97455.54;109116;1297;22225;-87
2023/01/21 04:00:59;;;;;;;7.00;6.40;;;;;;;-0.96;100.00;97454.59;108738;1295;22279;-86
2023/01/21 04:03:27;;;;;;;7.40;6.70;;;;;;;-0.99;100.00;97451.25;108705;1297;22165;-86
2023/01/21 04:05:55;;;;;;;11.00;7.00;;;;;;;-0.98;100.00;97447.23;108930;1297;22229;-87
2023/01/21 04:08:23;;;;;;;8.70;6.50;;;;;;;-1.01;100.00;97446.41;108943;1297;22145;-85
2023/01/21 04:10:51;;;;;;;9.30;7.90;;;;;;;-1.03;100.00;97449.21;109073;1297;23072;-86
2023/01/21 04:13:19;;;;;;;9.90;7.70;;;;;;;-1.07;100.00;97446.86;108673;1297;22316;-87
2023/01/21 04:15:47;;;;;;;9.20;7.60;;;;;;;-1.10;100.00;97441.56;108697;1297;22751;-87
2023/01/21 04:18:15;;;;;;;8.50;7.70;;;;;;;-1.09;100.00;97439.58;108873;1297;22260;-87
2023/01/21 04:20:45;;;;;;;8.40;7.20;;;;;;;-1.09;100.00;97441.85;108887;1283;22273;-87
2023/01/21 04:23:13;;;;;;;8.30;7.40;;;;;;;-1.12;100.00;97441.48;108688;1297;22156;-87
2023/01/21 04:25:41;;;;;;;7.80;6.80;;;;;;;-1.09;100.00;97444.91;108608;1297;22225;-87
2023/01/21 04:28:09;;;;;;;9.20;7.80;;;;;;;-1.10;100.00;97443.04;108786;1297;23410;-86
2023/01/21 04:30:37;;;;;;;7.70;6.90;;;;;;;-1.12;100.00;97439.08;108742;1297;22159;-86
2023/01/21 04:33:05;;;;;;;10.30;8.00;;;;;;;-1.13;100.00;97436.69;108920;1297;22200;-85
2023/01/21 04:35:37;;;;;;;13.70;8.00;;;;;;;-1.13;100.00;97435.74;108918;1297;22136;-85
2023/01/21 04:38:05;;;;;;;8.50;7.70;;;;;;;-1.11;100.00;97440.52;108602;1297;22219;-86
2023/01/21 04:40:33;;;;;;;10.10;8.40;;;;;;;-1.12;100.00;97436.92;108901;1297;22261;-85
2023/01/21 04:43:01;;;;;;;7.90;7.00;;;;;;;-1.13;100.00;97439.29;108899;1297;22244;-85
2023/01/21 04:45:29;;;;;;;7.60;6.70;;;;;;;-1.16;100.00;97441.29;108938;1297;22145;-87
2023/01/21 04:47:57;;;;;;;8.80;7.90;;;;;;;-1.16;100.00;97445.78;108923;1297;22191;-86
2023/01/21 04:50:25;;;;;;;8.30;7.50;;;;;;;-1.14;100.00;97446.56;108911;1297;22242;-86
2023/01/21 04:52:53;;;;;;;8.50;6.40;;;;;;;-1.12;100.00;97442.89;108752;1297;22248;-85
2023/01/21 04:55:21;;;;;;;8.70;6.80;;;;;;;-1.14;100.00;97439.32;108954;1297;22206;-85
2023/01/21 04:57:53;;;;;;;8.50;7.50;;;;;;;-1.13;100.00;97439.70;108920;1297;22938;-85
2023/01/21 05:00:21;;;;;;;7.80;7.00;;;;;;;-1.12;100.00;97439.70;108905;1297;23008;-87
2023/01/21 05:02:49;;;;;;;9.30;6.80;;;;;;;-1.11;100.00;97441.91;108904;1297;22208;-86
2023/01/21 05:05:18;;;;;;;8.00;6.40;;;;;;;-1.14;100.00;97444.92;109164;1297;22236;-87
2023/01/21 05:07:47;;;;;;;9.10;7.10;;;;;;;-1.14;100.00;97443.98;108763;1295;22162;-87
2023/01/21 05:10:16;;;;;;;6.90;6.20;;;;;;;-1.13;100.00;97441.40;108968;1297;22176;-90
2023/01/21 05:12:45;;;;;;;7.90;7.00;;;;;;;-1.13;100.00;97434.04;108543;1294;22221;-88
2023/01/21 05:15:13;;;;;;;8.70;6.90;;;;;;;-1.11;100.00;97437.84;108948;1297;22154;-88
2023/01/21 05:17:41;;;;;;;8.30;7.30;;;;;;;-1.10;100.00;97441.08;108757;1297;22273;-87
2023/01/21 05:20:12;;;;;;;8.00;7.20;;;;;;;-1.09;100.00;97441.33;108790;1297;22159;-87
2023/01/21 05:22:40;;;;;;;10.20;9.20;;;;;;;-1.07;100.00;97437.72;108730;1297;22334;-87
2023/01/21 05:25:08;;;;;;;9.80;8.80;;;;;;;-1.06;100.00;97436.31;108695;1297;22972;-87
2023/01/21 05:27:37;;;;;;;10.10;8.90;;;;;;;-1.04;100.00;97434.11;108856;1297;22259;-86
2023/01/21 05:30:05;;;;;;;8.70;7.80;;;;;;;-1.06;100.00;97430.05;108861;1296;22242;-87
2023/01/21 05:32:35;;;;;;;11.50;9.80;;;;;;;-1.09;100.00;97432.42;108887;1297;22272;-87
2023/01/21 05:35:04;;;;;;;8.90;7.80;;;;;;;-1.08;100.00;97433.41;108881;1297;22243;-87
2023/01/21 05:37:32;;;;;;;10.10;9.00;;;;;;;-1.09;100.00;97430.75;108870;1297;22135;-87
2023/01/21 05:40:00;;;;;;;10.00;8.60;;;;;;;-1.05;100.00;97430.92;108852;1297;22955;-87
2023/01/21 05:42:28;;;;;;;9.50;8.50;;;;;;;-1.06;100.00;97436.41;108891;1297;23074;-87
2023/01/21 05:44:56;;;;;;;9.80;8.80;;;;;;;-1.08;100.00;97432.02;108888;1297;22861;-87
2023/01/21 05:47:24;;;;;;;10.30;8.80;;;;;;;-1.07;100.00;97432.86;108756;1297;22202;-85
2023/01/21 05:49:52;;;;;;;10.30;9.30;;;;;;;-1.05;100.00;97430.73;109222;1297;22393;-85
2023/01/21 05:52:20;;;;;;;9.40;8.40;;;;;;;-1.07;100.00;97433.11;109106;1287;22254;-85
2023/01/21 05:54:47;;;;;;;10.30;8.60;;;;;;;-1.07;100.00;97431.25;109027;1297;22283;-85
2023/01/21 05:57:29;;;;;;;8.60;7.80;;;;;;;-1.08;100.00;97431.19;108807;1297;22239;-85
2023/01/21 05:59:58;;;;;;;9.00;8.10;;;;;;;-1.11;100.00;97431.03;108892;1297;23027;-86
2023/01/21 06:02:26;;;;;;;9.40;8.50;;;;;;;-1.10;100.00;97428.80;108680;1297;22197;-85
2023/01/21 06:04:56;;;;;;;8.60;7.80;;;;;;;-1.10;100.00;97427.87;108862;1297;22251;-85
2023/01/21 06:07:24;;;;;;;9.30;8.50;;;;;;;-1.10;100.00;97431.83;108680;1297;22203;-85
2023/01/21 06:09:53;;;;;;;10.30;9.30;;;;;;;-1.06;100.00;97429.70;108873;1297;22259;-86
2023/01/21 06:12:21;;;;;;;9.10;8.20;;;;;;;-1.06;100.00;97435.81;108882;1297;22234;-86
2023/01/21 06:14:51;;;;;;;8.60;7.80;;;;;;;-1.09;100.00;97435.02;108646;1285;22900;-86
2023/01/21 06:17:19;;;;;;;7.80;7.10;;;;;;;-1.11;100.00;97436.83;108690;1285;22221;-86
2023/01/21 06:19:47;;;;;;;8.60;7.80;;;;;;;-1.06;100.00;97442.65;108869;1297;22389;-86
2023/01/21 06:22:15;;;;;;;8.00;7.20;;;;;;;-1.07;100.00;97446.17;108865;1296;22192;-86
2023/01/21 06:24:43;;;;;;;8.60;7.80;;;;;;;-1.08;100.00;97449.48;108861;1297;23083;-85
2023/01/21 06:27:11;;;;;;;8.40;7.60;;;;;;;-1.06;100.00;97458.39;108857;1297;22249;-85
2023/01/21 06:29:39;;;;;;;7.50;6.80;;;;;;;-1.04;100.00;97460.14;108842;1297;22300;-85
2023/01/21 06:32:07;;;;;;;8.10;7.30;;;;;;;-1.07;100.00;97458.86;108885;1274;22159;-86
2023/01/21 06:34:35;;;;;;;8.50;7.70;;;;;;;-1.08;100.00;97462.38;108701;1297;22266;-85
2023/01/21 06:37:03;;;;;;;9.70;8.70;;;;;;;-1.05;100.00;97467.52;108847;1297;22215;-86
2023/01/21 06:39:31;;;;;;;8.00;7.30;;;;;;;-1.03;100.00;97467.45;108892;1297;22244;-86
2023/01/21 06:41:59;;;;;;;8.40;7.60;;;;;;;-1.05;100.00;97470.02;108678;1297;23048;-86
2023/01/21 06:44:27;;;;;;;8.40;7.60;;;;;;;-1.08;100.00;97472.07;108841;1297;22154;-87
2023/01/21 06:46:55;;;;;;;8.30;7.50;;;;;;;-1.05;100.00;97472.38;108867;1297;22244;-85
2023/01/21 06:49:28;;;;;;;10.50;9.50;;;;;;;-1.06;100.00;97472.80;108882;1297;22236;-86
2023/01/21 06:51:56;;;;;;;10.70;9.70;;;;;;;-1.05;100.00;97472.29;108867;1297;22274;-86
2023/01/21 06:54:24;;;;;;;11.50;10.40;;;;;;;-1.05;100.00;97474.35;108875;1297;22229;-85
2023/01/21 06:56:52;;;;;;;9.40;8.50;;;;;;;-1.02;100.00;97477.88;108872;1297;22256;-86
2023/01/21 06:59:20;;;;;;;8.80;8.00;;;;;;;-1.01;100.00;97480.67;108873;1297;22206;-85
2023/01/21 07:01:48;;;;;;;8.50;7.70;;;;;;;-1.01;100.00;97479.56;108884;1297;22276;-86
2023/01/21 07:04:16;;;;;;;9.90;9.00;;;;;;;-0.99;100.00;97481.71;108890;1297;22301;-84
2023/01/21 07:06:44;;;;;;;9.40;8.50;;;;;;;-0.97;100.00;97487.67;108962;1297;22170;-84
2023/01/21 07:09:12;;;;;;;10.10;9.10;;;;;;;-0.97;100.00;97491.80;108944;1297;22163;-84
2023/01/21 07:11:40;;;;;;;9.60;8.70;;;;;;;-1.02;100.00;97496.04;108929;1297;22757;-84
2023/01/21 07:14:08;;;;;;;9.60;7.70;;;;;;;-0.97;100.00;97499.59;108922;1297;22418;-84
2023/01/21 07:16:36;;;;;;;9.70;8.50;;;;;;;-0.90;100.00;97500.17;109076;1297;22298;-84
2023/01/21 07:19:05;;;;;;;10.60;9.50;;;;;;;-0.85;100.00;97504.55;108910;1297;22136;-84
2023/01/21 07:21:34;;;;;;;10.90;9.70;;;;;;;-0.85;100.00;97510.28;108741;1297;22276;-84
2023/01/21 07:24:04;;;;;;;13.50;12.10;;;;;;;-0.80;100.00;97507.11;108908;1297;23151;-84
2023/01/21 07:26:36;;;;;;;16.50;14.90;;;;;;;-0.80;100.00;97506.41;108667;1297;22246;-84
2023/01/21 07:29:05;;;;;;;18.20;16.50;;;;;;;-0.75;100.00;97511.38;108844;1294;22308;-84
2023/01/21 07:31:33;;;;;;;16.70;15.20;;;;;;;-0.76;100.00;97514.10;108676;1297;22290;-84
2023/01/21 07:34:02;;;;;;;14.30;12.80;;;;;;;-0.77;100.00;97516.57;108667;1297;22135;-85
2023/01/21 07:36:30;;;;;;;11.30;10.20;;;;;;;-0.75;100.00;97521.27;108591;1297;22148;-85
2023/01/21 07:38:58;;;;;;;9.60;8.70;;;;;;;-0.71;100.00;97524.16;108705;1297;22249;-84
2023/01/21 07:41:26;;;;;;;10.90;9.90;;;;;;;-0.68;100.00;97523.90;108864;1297;22132;-84
2023/01/21 07:43:55;;;;;;;14.10;12.60;;;;;;;-0.68;100.00;97528.70;108875;1297;23300;-86
2023/01/21 07:46:23;;;;;;;14.20;12.90;;;;;;;-0.64;100.00;97528.42;108869;1297;22113;-84
2023/01/21 07:48:51;;;;;;;11.70;10.60;;;;;;;-0.60;100.00;97530.49;108692;1297;22294;-84
2023/01/21 07:51:20;;;;;;;11.60;10.40;;;;;;;-0.60;100.00;97528.76;108677;1297;22253;-83
2023/01/21 07:53:48;;;;;;;11.70;10.50;;;;;;;-0.64;100.00;97530.16;108813;1297;22176;-83
2023/01/21 07:56:17;;;;;;;11.30;10.20;;;;;;;-0.63;100.00;97532.52;108847;1297;22140;-83
2023/01/21 07:58:45;;;;;;;11.60;10.40;;;;;;;-0.63;100.00;97530.71;108853;1297;22245;-84
2023/01/21 08:01:13;;;;;;;10.60;9.50;;;;;;;-0.63;100.00;97532.83;108876;1297;22284;-84
2023/01/21 08:03:41;;;;;;;11.10;10.00;;;;;;;-0.60;100.00;97531.55;108851;1297;22990;-84
2023/01/21 08:06:09;;;;;;;11.20;10.00;;;;;;;-0.54;100.00;97532.68;108843;1297;22288;-84
2023/01/21 08:08:37;;;;;;;11.10;10.00;;;;;;;-0.53;100.00;97533.08;108843;1289;22248;-84
2023/01/21 08:11:05;;;;;;;10.50;9.50;;;;;;;-0.50;100.00;97530.60;108858;1297;22347;-84
2023/01/21 08:13:33;;;;;;;10.50;9.50;;;;;;;-0.47;100.00;97529.36;108856;1297;22183;-83
2023/01/21 08:16:01;;;;;;;12.30;11.10;;;;;;;-0.50;100.00;97530.97;108809;1297;22309;-84
2023/01/21 08:18:29;;;;;;;13.90;12.50;;;;;;;-0.51;100.00;97536.61;108869;1297;22219;-85
2023/01/21 08:20:58;;;;;;;13.10;11.50;;;;;;;-0.54;100.00;97538.13;108862;1297;22170;-85
2023/01/21 08:23:26;;;;;;;12.30;10.90;;;;;;;-0.49;100.00;97536.80;108850;1297;22304;-87
2023/01/21 08:25:54;;;;;;;13.20;10.70;;;;;;;-0.45;100.00;97537.02;108841;1297;22236;-85
2023/01/21 08:28:23;;;;;;;11.70;10.50;;;;;;;-0.42;100.00;97543.96;108807;1297;22218;-85
2023/01/21 08:30:51;;;;;;;11.50;9.70;;;;;;;-0.37;100.00;97549.71;108855;1297;22321;-85
2023/01/21 08:33:19;;;;;;;9.80;8.80;;;;;;;-0.41;100.00;97549.91;108883;1297;22134;-87
2023/01/21 08:35:47;;;;;;;10.60;9.50;;;;;;;-0.42;100.00;97545.18;108860;1297;22115;-85
2023/01/21 08:38:15;;;;;;;9.30;8.40;;;;;;;-0.40;100.00;97548.72;108869;1297;22332;-84
2023/01/21 08:40:43;;;;;;;10.50;9.10;;;;;;;-0.35;100.00;97547.54;108850;1297;22235;-85
2023/01/21 08:43:11;;;;;;;10.70;9.60;;;;;;;-0.33;100.00;97548.48;108831;1297;22907;-85
2023/01/21 08:45:39;;;;;;;11.90;10.80;;;;;;;-0.32;100.00;97550.92;108868;1297;22850;-85
2023/01/21 08:48:07;;;;;;;12.30;11.10;;;;;;;-0.32;100.00;97548.08;108854;1297;22130;-86
2023/01/21 08:50:34;;;;;;;11.80;10.60;;;;;;;-0.29;100.00;97552.10;108682;1297;23196;-85
2023/01/21 08:53:02;;;;;;;10.90;9.40;;;;;;;-0.25;100.00;97554.43;108841;1297;22235;-85
2023/01/21 08:55:30;;;;;;;10.40;9.40;;;;;;;-0.27;100.00;97560.02;108848;1297;23009;-87
2023/01/21 08:57:58;;;;;;;10.80;9.70;;;;;;;-0.28;100.00;97561.69;108664;1297;22744;-87
2023/01/21 09:00:26;;;;;;;9.70;8.70;;;;;;;-0.31;100.00;97564.38;108838;1295;22349;-90
2023/01/21 09:02:55;;;;;;;8.50;7.70;;;;;;;-0.28;100.00;97566.35;108571;1297;22151;-90
2023/01/21 09:05:23;;;;;;;9.70;8.60;;;;;;;-0.21;100.00;97569.54;108503;1294;22300;-89
2023/01/21 09:07:51;;;;;;;9.90;9.00;;;;;;;-0.20;100.00;97570.54;108838;1297;22263;-82
2023/01/21 09:13:08;;;;;;;8.60;7.80;;;;;;;-0.23;100.00;97576.09;108830;1297;22260;-83
2023/01/21 09:15:37;;;;;;;7.50;6.70;;;;;;;-0.12;100.00;97575.33;108788;1295;22157;-87
2023/01/21 09:18:06;;;;;;;8.70;7.90;;;;;;;-0.11;100.00;97579.44;108755;1297;22200;-82
2023/01/21 09:20:34;;;;;;;9.30;8.40;;;;;;;-0.12;100.00;97582.01;108767;1289;22369;-82
2023/01/21 09:23:22;;;;;;;7.00;6.30;;;;;;;-0.11;100.00;97586.48;108768;1297;22265;-83
2023/01/21 09:25:59;;;;;;;8.80;7.90;;;;;;;-0.07;100.00;97589.83;108763;1297;22323;-84
2023/01/21 09:28:27;;;;;;;10.70;9.70;;;;;;;-0.02;100.00;97589.91;108805;1297;22284;-84
2023/01/21 09:31:04;;;;;;;13.20;11.90;;;;;;;0.07;100.00;97595.00;108815;1297;22231;-84
2023/01/21 09:33:35;;;;;;;13.60;12.30;;;;;;;0.08;100.00;97591.62;108788;1297;22934;-84
2023/01/21 09:36:06;;;;;;;16.60;15.10;;;;;;;0.09;100.00;97592.38;108445;1297;22251;-83
2023/01/21 09:38:34;;;;;;;12.70;11.50;;;;;;;0.07;100.00;97595.90;108816;1297;22202;-84
2023/01/21 09:41:23;;;;;;;12.40;11.30;;;;;;;0.08;100.00;97599.20;108792;1297;22810;-83
2023/01/21 09:44:02;;;;;;;13.80;12.40;;;;;;;0.14;100.00;97598.35;108803;1297;22923;-84
2023/01/21 09:46:35;;;;;;;10.20;9.20;;;;;;;0.19;100.00;97606.55;108839;1297;23019;-83
2023/01/21 09:49:07;;;;;;;12.30;11.00;;;;;;;0.20;100.00;97607.84;108615;1292;22308;-84
2023/01/21 09:51:47;;;;;;;13.50;12.20;;;;;;;0.17;100.00;97609.48;108961;1291;22463;-83
2023/01/21 09:54:29;;;;;;;13.40;12.00;;;;;;;0.18;100.00;97610.92;108718;1297;22994;-84
2023/01/21 09:57:16;;;;;;;13.90;12.60;;;;;;;0.21;100.00;97608.11;108708;1297;22230;-83
2023/01/21 10:00:23;;;;;;;14.30;13.00;;;;;;;0.23;100.00;97610.23;108877;1297;22141;-83
2023/01/21 10:03:23;;;;;;;16.10;14.30;;;;;;;0.11;100.00;97612.07;108867;1296;22157;-84
2023/01/21 10:05:51;;;;;;;15.70;14.00;;;;;;;0.08;100.00;97612.33;108864;1297;22213;-85
2023/01/21 10:08:28;;;;;;;15.40;13.90;;;;;;;0.07;100.00;97606.29;108856;1297;22808;-84
2023/01/21 10:11:23;;;;;;;17.00;15.40;;;;;;;0.03;100.00;97602.67;108812;1295;22250;-85
2023/01/21 10:14:09;;;;;;;16.60;15.00;;;;;;;0.08;100.00;97608.14;108802;1295;22222;-85
2023/01/21 10:16:47;;;;;;;19.30;17.60;;;;;;;0.08;99.98;97606.20;108749;1297;22475;-85
2023/01/21 10:19:38;;;;;;;17.10;15.00;;;;;;;0.06;100.00;97607.28;108756;1297;22189;-84
2023/01/21 10:22:13;;;;;;;22.50;20.40;;;;;;;0.10;100.00;97609.89;108789;1297;22360;-84
2023/01/21 10:24:47;;;;;;;19.40;17.60;;;;;;;0.14;100.00;97618.38;108584;1292;22283;-84
2023/01/21 10:27:18;;;;;;;22.70;20.50;;;;;;;0.17;100.00;97620.56;108842;1294;22948;-83
2023/01/21 10:29:56;;;;;;;19.40;17.60;;;;;;;0.21;100.00;97620.84;108604;1292;22297;-84
2023/01/21 10:32:25;;;;;;;19.00;17.40;;;;;;;0.19;99.98;97621.39;108745;1292;23141;-84
2023/01/21 10:34:56;;;;;;;16.40;14.80;;;;;;;0.12;99.92;97620.10;108782;1290;22288;-85
2023/01/21 10:37:44;;;;;;;18.30;16.50;;;;;;;0.13;100.00;97620.42;108590;1297;22253;-84
2023/01/21 10:40:42;;;;;;;17.60;15.90;;;;;;;0.14;99.83;97619.13;108739;1295;22240;-83
2023/01/21 10:43:33;;;;;;;18.10;16.20;;;;;;;0.11;99.77;97618.10;108738;1294;22312;-83
2023/01/21 10:46:10;;;;;;;20.60;18.60;;;;;;;0.06;99.75;97620.10;108784;1292;22266;-85
2023/01/21 10:48:54;;;;;;;17.00;15.30;;;;;;;0.08;99.59;97617.59;108803;1291;22286;-84
2023/01/21 10:51:44;;;;;;;18.70;16.80;;;;;;;0.04;99.61;97614.60;108817;1292;22305;-85
2023/01/21 10:55:00;;;;;;;17.60;15.90;;;;;;;0.05;99.71;97617.05;108868;1288;22286;-84
2023/01/21 10:57:35;;;;;;;29.30;26.40;;;;;;;0.09;99.86;97613.00;108642;1297;22251;-85
2023/01/21 11:00:14;;;;;;;18.40;16.60;;;;;;;0.16;99.86;97613.65;108777;1297;22198;-84
2023/01/21 11:02:42;;;;;;;18.80;16.80;;;;;;;0.20;99.71;97612.02;108774;1297;22907;-83
2023/01/21 11:05:11;;;;;;;26.50;24.10;;;;;;;0.20;99.72;97612.39;108765;1298;22963;-84
2023/01/21 11:07:41;;;;;;;19.20;17.40;;;;;;;0.18;99.58;97613.73;108765;1297;22245;-83
2023/01/21 11:10:18;;;;;;;19.70;17.90;;;;;;;0.18;99.12;97608.54;108826;1298;22315;-83
2023/01/21 11:12:47;;;;;;;22.20;20.00;;;;;;;0.18;99.49;97614.97;108787;1295;22294;-83
2023/01/21 11:15:18;;;;;;;21.30;19.30;;;;;;;0.22;99.27;97614.86;108926;1296;22938;-82
2023/01/21 11:17:52;;;;;;;34.20;31.10;;;;;;;0.20;99.25;97613.40;108954;1296;22954;-82
2023/01/21 11:20:40;;;;;;;40.70;36.40;;;;;;;0.18;99.21;97612.27;108949;1296;22793;-84
2023/01/21 11:23:29;;;;;;;46.70;42.00;;;;;;;0.18;98.92;97608.85;108959;1296;22319;-83
2023/01/21 11:26:06;;;;;;;26.60;24.20;;;;;;;0.17;99.40;97608.16;108807;1296;22297;-83
2023/01/21 11:28:37;;;;;;;24.80;22.50;;;;;;;0.23;99.43;97612.71;108798;1296;22152;-84
2023/01/21 11:31:23;;;;;;;21.90;19.90;;;;;;;0.28;99.57;97609.14;108892;1292;22227;-83
2023/01/21 11:33:52;;;;;;;20.90;18.90;;;;;;;0.35;99.72;97613.75;108684;1288;164816;-84
2023/01/21 11:36:21;;;;;;;19.60;17.50;;;;;;;0.36;99.07;97617.11;108951;1296;22143;-84
2023/01/21 11:39:02;;;;;;;19.20;17.30;;;;;;;0.33;98.79;97618.34;108982;1296;22310;-84
2023/01/21 11:41:31;;;;;;;22.20;20.20;;;;;;;0.31;98.98;97614.70;108801;1296;22221;-84
2023/01/21 11:44:18;;;;;;;19.10;17.30;;;;;;;0.38;99.51;97618.16;108813;1296;22319;-83